This is the latest recevied weather packets stored in our database for station/object EA1CUE-WX. If no packets are shown the sender has not sent any weather packets the latest 10 day(s).
| Time | Temp. | Humidity | Pressure | Rain* | Wind** | Luminosity | Snow |
|---|---|---|---|---|---|---|---|
| 1787831630 | 10° C | 1% | 1009.2 hPa | 3.56 mm | - | - | - |
| 1787831330 | 10° C | 1% | 1009.2 hPa | 3.56 mm | - | - | - |
| 1787831030 | 10° C | 1% | 1009.1 hPa | 3.56 mm | - | - | - |
| 1787830730 | 10° C | 1% | 1009 hPa | 3.56 mm | - | - | - |
| 1787830430 | 10° C | 1% | 1008.7 hPa | 3.56 mm | - | - | - |
| 1787830130 | 10° C | 1% | 1008.7 hPa | 3.56 mm | - | - | - |
| 1787829830 | 10.56° C | 1% | 1008.5 hPa | 3.56 mm | - | - | - |
| 1787829530 | 10.56° C | 1% | 1008.6 hPa | 3.56 mm | - | - | - |
| 1787829230 | 10.56° C | 1% | 1009 hPa | 2.79 mm | - | - | - |
| 1787828930 | 10.56° C | 1% | 1009 hPa | 1.78 mm | - | - | - |
| 1787828630 | 11.11° C | 1% | 1009.3 hPa | 0.76 mm | - | - | - |
| 1787828330 | 11.67° C | 1% | 1009.6 hPa | 0 mm | - | - | - |
| 1787828030 | 11.67° C | 1% | 1009.3 hPa | 0 mm | - | - | - |
| 1787827730 | 12.22° C | 1% | 1009.1 hPa | 0 mm | - | - | - |
| 1787827430 | 12.22° C | 1% | 1009 hPa | 0 mm | - | - | - |
| 1787827130 | 11.67° C | 1% | 1009 hPa | 0 mm | - | - | - |
| 1787826830 | 11.67° C | 1% | 1008.9 hPa | 0 mm | - | - | - |
| 1787826530 | 11.67° C | 1% | 1009 hPa | 0 mm | - | - | - |
| 1787826230 | 11.67° C | 1% | 1008.9 hPa | 0 mm | - | - | - |
| 1787825930 | 11.67° C | 1% | 1008.8 hPa | 0 mm | - | - | - |
| 1787825630 | 11.67° C | 1% | 1008.8 hPa | 0 mm | - | - | - |
| 1787825330 | 11.11° C | 1% | 1008.8 hPa | 0 mm | - | - | - |
| 1787825030 | 11.11° C | 1% | 1008.8 hPa | 0 mm | - | - | - |
| 1787824730 | 11.67° C | 1% | 1008.8 hPa | 0 mm | - | - | - |
| 1787824430 | 11.67° C | 1% | 1008.7 hPa | 0.25 mm | - | - | - |
* Rain latest hour (hover to see other rain measurements)
** Current wind speed in m/s (hover to see current wind gust speed)